Time;durP1;ratioP1;P1;durP2;ratioP2;P2;SDS_P1;SDS_P2;PMS_P1;PMS_P2;Temp;Humidity;BMP_temperature;BMP_pressure;BME280_temperature;BME280_humidity;BME280_pressure;Samples;Min_cycle;Max_cycle;Signal;HPM_P1;HPM_P2
2021/03/06 00:00:45;;;;;;;41.50;13.50;;;;;;;-2.77;74.46;101638.56;124988;1112;23080;-56
2021/03/06 00:03:20;;;;;;;46.20;15.40;;;;;;;-2.78;74.90;101635.06;124865;1112;23206;-57
2021/03/06 00:05:49;;;;;;;41.57;15.13;;;;;;;-2.79;73.75;101644.39;124910;1112;23079;-54
2021/03/06 00:08:23;;;;;;;43.30;15.13;;;;;;;-2.80;74.52;101647.48;124990;1110;23439;-57
2021/03/06 00:10:53;;;;;;;41.40;15.10;;;;;;;-2.82;74.35;101647.84;125023;1112;23238;-56
2021/03/06 00:13:22;;;;;;;42.53;16.95;;;;;;;-2.84;74.26;101650.14;125146;1112;27310;-54
2021/03/06 00:15:51;;;;;;;46.57;17.63;;;;;;;-2.86;73.94;101646.97;124915;1110;23046;-54
2021/03/06 00:18:21;;;;;;;54.77;18.97;;;;;;;-2.86;74.37;101657.91;125005;1111;23035;-57
2021/03/06 00:20:50;;;;;;;44.63;17.60;;;;;;;-2.84;74.29;101646.61;125039;1112;24106;-55
2021/03/06 00:23:19;;;;;;;50.17;17.40;;;;;;;-2.85;74.16;101648.55;124991;1112;24393;-54
2021/03/06 00:25:49;;;;;;;39.95;15.60;;;;;;;-2.86;74.46;101657.91;124986;1112;23036;-58
2021/03/06 00:28:18;;;;;;;45.92;15.85;;;;;;;-2.86;74.50;101652.44;124891;1112;23442;-54
2021/03/06 00:30:49;;;;;;;40.67;14.30;;;;;;;-2.85;74.09;101647.75;124900;1112;23083;-57
2021/03/06 00:33:18;;;;;;;40.08;15.68;;;;;;;-2.84;74.22;101658.34;124984;1112;23041;-58
2021/03/06 00:35:47;;;;;;;42.33;16.33;;;;;;;-2.84;74.83;101655.61;125000;1112;27771;-57
2021/03/06 00:38:16;;;;;;;46.50;14.95;;;;;;;-2.82;74.59;101661.52;124928;1112;23019;-54
2021/03/06 00:40:45;;;;;;;37.23;13.97;;;;;;;-2.82;75.02;101657.98;124937;1112;25251;-55
2021/03/06 00:43:14;;;;;;;40.27;14.03;;;;;;;-2.82;74.03;101658.78;124852;1111;23103;-58
2021/03/06 00:45:43;;;;;;;40.80;14.87;;;;;;;-2.81;74.19;101663.09;124908;1112;23176;-54
2021/03/06 00:48:13;;;;;;;37.83;14.05;;;;;;;-2.80;74.11;101658.42;124981;1112;23021;-56
2021/03/06 00:50:43;;;;;;;38.90;13.17;;;;;;;-2.78;74.60;101654.19;124946;1112;23090;-57
2021/03/06 00:53:12;;;;;;;41.48;14.47;;;;;;;-2.78;74.38;101661.59;124906;1110;23007;-55
2021/03/06 00:55:41;;;;;;;40.40;13.95;;;;;;;-2.78;74.59;101661.59;124870;1112;23045;-56
2021/03/06 00:58:10;;;;;;;34.20;12.70;;;;;;;-2.79;73.99;101658.05;125111;1110;27642;-55
2021/03/06 01:00:39;;;;;;;40.77;13.67;;;;;;;-2.78;74.52;101656.92;124889;1112;23161;-56
2021/03/06 01:03:08;;;;;;;36.90;12.93;;;;;;;-2.76;73.65;101657.36;124907;1112;23239;-56
2021/03/06 01:05:37;;;;;;;34.77;13.73;;;;;;;-2.77;74.59;101650.30;124891;1112;24586;-53
2021/03/06 01:08:08;;;;;;;34.63;12.80;;;;;;;-2.77;74.34;101650.30;124843;1112;22994;-59
2021/03/06 01:10:40;;;;;;;33.50;12.10;;;;;;;-2.75;74.09;101648.00;124804;1112;23039;-56
2021/03/06 01:13:10;;;;;;;37.67;13.17;;;;;;;-2.75;74.28;101653.47;124826;1112;23103;-58
2021/03/06 01:15:40;;;;;;;39.35;13.50;;;;;;;-2.76;73.32;101649.16;124939;1111;26556;-58
2021/03/06 01:18:10;;;;;;;41.20;13.85;;;;;;;-2.75;73.53;101648.00;124824;1111;23074;-59
2021/03/06 01:20:39;;;;;;;39.67;14.60;;;;;;;-2.75;73.36;101644.50;124857;1112;23037;-57
2021/03/06 01:23:08;;;;;;;41.70;13.47;;;;;;;-2.76;74.14;101649.16;124865;1112;23377;-56
2021/03/06 01:25:37;;;;;;;40.30;13.07;;;;;;;-2.76;73.87;101651.09;124831;1111;24323;-54
2021/03/06 01:28:07;;;;;;;40.43;14.13;;;;;;;-2.78;73.89;101643.26;124963;1110;23206;-54
2021/03/06 01:30:37;;;;;;;40.70;14.50;;;;;;;-2.78;73.47;101650.66;124821;1112;23081;-54
2021/03/06 01:33:07;;;;;;;37.80;14.47;;;;;;;-2.78;73.75;101647.92;125026;1112;23054;-54
2021/03/06 01:35:36;;;;;;;33.28;12.88;;;;;;;-2.77;73.52;101646.77;124891;1112;23090;-57
2021/03/06 01:38:06;;;;;;;41.07;14.30;;;;;;;-2.78;73.84;101651.45;124833;1112;23203;-53
2021/03/06 01:40:37;;;;;;;41.70;14.47;;;;;;;-2.77;73.55;101650.30;124886;1110;23028;-57
2021/03/06 01:43:09;;;;;;;36.80;13.60;;;;;;;-2.76;73.22;101646.42;124654;1112;23085;-56
2021/03/06 01:45:39;;;;;;;44.03;15.10;;;;;;;-2.76;73.83;101653.83;124611;1112;22985;-57
2021/03/06 01:48:09;;;;;;;33.58;13.35;;;;;;;-2.76;73.14;101651.09;124901;1112;23011;-56
2021/03/06 01:50:40;;;;;;;42.07;15.07;;;;;;;-2.76;73.05;101654.63;124926;1110;23089;-54
2021/03/06 01:53:12;;;;;;;35.30;12.97;;;;;;;-2.77;73.08;101649.50;124779;1112;23040;-56
2021/03/06 01:55:44;;;;;;;36.40;12.70;;;;;;;-2.78;73.65;101647.92;124946;1112;23030;-58
2021/03/06 01:58:15;;;;;;;35.17;13.07;;;;;;;-2.77;73.32;101644.03;124886;1111;23058;-57
2021/03/06 02:00:44;;;;;;;37.03;12.13;;;;;;;-2.76;72.69;101648.36;124793;1110;23229;-55
2021/03/06 02:03:14;;;;;;;38.90;13.23;;;;;;;-2.77;73.16;101650.30;124854;1111;23037;-56
2021/03/06 02:05:44;;;;;;;34.45;11.83;;;;;;;-2.76;72.67;101651.89;125067;1112;26086;-54
2021/03/06 02:08:14;;;;;;;42.43;14.67;;;;;;;-2.76;73.28;101648.36;125027;1112;23037;-55
2021/03/06 02:10:45;;;;;;;40.67;12.67;;;;;;;-2.76;73.11;101651.89;124946;1111;23250;-54
2021/03/06 02:13:40;;;;;;;35.70;13.67;;;;;;;-2.78;73.21;101640.52;124940;1112;23036;-56
2021/03/06 02:16:20;;;;;;;33.27;14.63;;;;;;;-2.81;73.34;101648.62;124787;1112;24646;-59
2021/03/06 02:18:56;;;;;;;36.80;14.05;;;;;;;-2.82;73.14;101647.05;125018;1112;23083;-57
2021/03/06 02:21:42;;;;;;;42.93;14.90;;;;;;;-2.86;72.60;101651.64;124933;1110;29862;-56
2021/03/06 02:24:37;;;;;;;40.33;13.80;;;;;;;-2.89;72.81;101644.14;124966;1112;23235;-54
2021/03/06 02:27:15;;;;;;;37.03;14.40;;;;;;;-2.91;73.12;101647.23;124941;1110;23235;-55
2021/03/06 02:29:53;;;;;;;44.15;15.50;;;;;;;-2.97;72.67;101648.65;124974;1112;27531;-54
2021/03/06 02:32:25;;;;;;;39.30;14.77;;;;;;;-2.99;72.58;101653.67;124964;1110;26395;-54
2021/03/06 02:35:05;;;;;;;37.37;13.67;;;;;;;-3.01;72.47;101652.44;125105;1112;23040;-54
2021/03/06 02:37:39;;;;;;;46.35;15.63;;;;;;;-3.04;72.94;101650.42;126079;1110;22981;-57
2021/03/06 02:40:13;;;;;;;40.93;15.17;;;;;;;-3.05;72.66;101654.29;125010;1112;23123;-56
2021/03/06 02:42:43;;;;;;;39.25;15.50;;;;;;;-3.08;72.76;101655.78;124938;1111;23093;-57
2021/03/06 02:45:16;;;;;;;43.63;15.28;;;;;;;-3.11;73.04;101650.23;124877;1110;23082;-53
2021/03/06 02:47:45;;;;;;;43.57;15.67;;;;;;;-3.14;72.72;101649.00;124912;1111;26408;-54
2021/03/06 02:50:15;;;;;;;43.63;13.97;;;;;;;-3.17;72.96;101646.98;124932;1110;23035;-55
2021/03/06 02:52:44;;;;;;;41.08;13.40;;;;;;;-3.20;72.74;101641.41;124904;1112;23022;-54
2021/03/06 02:55:14;;;;;;;35.60;14.77;;;;;;;-3.21;72.78;101648.03;124936;1110;23048;-54
2021/03/06 02:58:11;;;;;;;42.90;14.15;;;;;;;-3.22;72.87;101649.17;124913;1111;23077;-55
2021/03/06 03:00:45;;;;;;;36.43;14.37;;;;;;;-3.21;72.52;101653.50;125008;1110;27704;-55
2021/03/06 03:03:22;;;;;;;38.20;13.33;;;;;;;-3.21;72.57;101651.56;124958;1112;23050;-57
2021/03/06 03:06:03;;;;;;;37.77;13.57;;;;;;;-3.24;72.59;101654.19;124788;1112;23036;-55
2021/03/06 03:08:37;;;;;;;36.20;13.10;;;;;;;-3.24;72.38;101662.38;124816;1112;24621;-54
2021/03/06 03:11:10;;;;;;;38.60;13.53;;;;;;;-3.26;72.92;101660.01;124853;1112;27571;-54
2021/03/06 03:13:41;;;;;;;35.67;14.47;;;;;;;-3.23;73.39;101655.79;124837;1110;23030;-56
2021/03/06 03:16:15;;;;;;;46.47;14.20;;;;;;;-3.20;72.91;101663.27;124942;1111;23458;-57
2021/03/06 03:18:50;;;;;;;37.30;13.33;;;;;;;-3.18;72.86;101659.04;124847;1112;22953;-53
2021/03/06 03:21:24;;;;;;;43.47;13.63;;;;;;;-3.16;72.32;101658.69;124918;1111;23084;-53
2021/03/06 03:23:59;;;;;;;43.63;13.73;;;;;;;-3.16;72.36;101670.41;124925;1111;23039;-56
2021/03/06 03:26:30;;;;;;;38.17;13.40;;;;;;;-3.16;72.81;101675.88;124859;1112;23028;-56
2021/03/06 03:28:59;;;;;;;34.43;13.00;;;;;;;-3.15;72.61;101677.47;124940;1110;25773;-53
2021/03/06 03:31:30;;;;;;;38.77;14.20;;;;;;;-3.14;72.25;101676.31;124920;1112;23108;-54
2021/03/06 03:33:59;;;;;;;41.33;13.25;;;;;;;-3.13;72.75;101675.18;124763;1112;23083;-54
2021/03/06 03:36:29;;;;;;;45.23;13.95;;;;;;;-3.12;71.90;101675.98;124945;1112;23035;-57
2021/03/06 03:38:58;;;;;;;40.83;12.87;;;;;;;-3.14;71.98;101679.05;124809;1112;26875;-55
2021/03/06 03:41:29;;;;;;;39.80;12.93;;;;;;;-3.17;72.09;101682.49;124951;1111;24419;-56
2021/03/06 03:44:01;;;;;;;39.53;14.60;;;;;;;-3.23;71.53;101677.64;124917;1112;23028;-57
2021/03/06 03:46:31;;;;;;;36.30;12.67;;;;;;;-3.27;71.96;101676.75;124926;1111;23103;-56
2021/03/06 03:49:02;;;;;;;40.07;13.87;;;;;;;-3.34;71.48;101678.16;124870;1111;25982;-59
2021/03/06 03:51:33;;;;;;;43.77;14.20;;;;;;;-3.35;71.91;101673.03;124890;1112;27845;-56
2021/03/06 03:54:00;;;;;;;;;;;;;;;-3.34;72.18;101675.43;125090;1112;24619;-57
2021/03/06 03:56:32;;;;;;;35.27;12.47;;;;;;;-3.35;71.86;101679.28;124838;1111;21553;-57
2021/03/06 03:59:02;;;;;;;34.37;12.37;;;;;;;-3.37;72.37;101687.03;124810;1112;22990;-58
2021/03/06 04:01:41;;;;;;;39.85;15.50;;;;;;;-3.38;72.09;101679.20;124814;1112;25947;-55
2021/03/06 04:04:24;;;;;;;41.60;13.87;;;;;;;-3.41;71.87;101683.42;124960;1112;23369;-54
2021/03/06 04:06:53;;;;;;;37.50;13.93;;;;;;;-3.41;72.47;101680.69;124809;1112;24862;-54
2021/03/06 04:09:25;;;;;;;40.20;14.23;;;;;;;-3.41;71.79;101686.16;124958;1112;23031;-53
2021/03/06 04:11:54;;;;;;;46.85;14.80;;;;;;;-3.42;72.10;101681.05;124869;1112;23040;-53
2021/03/06 04:14:23;;;;;;;40.90;14.00;;;;;;;-3.46;71.81;101688.36;124861;1112;23019;-54
2021/03/06 04:16:52;;;;;;;45.47;14.20;;;;;;;-3.49;71.82;101687.11;124806;1111;23045;-58
2021/03/06 04:19:22;;;;;;;37.63;12.93;;;;;;;-3.51;71.03;101688.59;124769;1112;22994;-56
2021/03/06 04:21:51;;;;;;;37.73;13.60;;;;;;;-3.54;71.94;101692.81;124948;1112;24368;-57
2021/03/06 04:24:20;;;;;;;45.53;14.77;;;;;;;-3.56;71.35;101689.63;124777;1112;24074;-57
2021/03/06 04:26:50;;;;;;;39.33;13.27;;;;;;;-3.58;71.46;101697.38;124999;1112;23077;-54
2021/03/06 04:29:20;;;;;;;42.10;14.28;;;;;;;-3.60;71.68;101696.94;125012;1112;23042;-57
2021/03/06 04:31:50;;;;;;;45.35;15.60;;;;;;;-3.60;71.39;101690.70;124933;1110;23216;-57
2021/03/06 04:34:19;;;;;;;42.20;13.95;;;;;;;-3.64;71.80;101693.31;124853;1110;26553;-57
2021/03/06 04:36:48;;;;;;;39.07;13.03;;;;;;;-3.66;71.40;101687.41;124870;1110;23103;-54
2021/03/06 04:39:17;;;;;;;38.50;13.50;;;;;;;-3.69;71.56;101690.05;124857;1110;23233;-56
2021/03/06 04:41:46;;;;;;;48.43;14.47;;;;;;;-3.72;71.48;101685.27;124857;1110;26739;-56
2021/03/06 04:44:15;;;;;;;42.93;14.03;;;;;;;-3.75;71.69;101686.78;125041;1112;23212;-57
2021/03/06 04:46:44;;;;;;;42.63;13.50;;;;;;;-3.78;71.97;101687.47;124825;1110;23092;-58
2021/03/06 04:49:13;;;;;;;45.53;14.90;;;;;;;-3.77;72.21;101697.25;124894;1110;23072;-54
2021/03/06 04:51:43;;;;;;;41.23;13.23;;;;;;;-3.78;71.94;101690.20;124821;1111;27562;-55
2021/03/06 04:54:12;;;;;;;43.37;14.07;;;;;;;-3.79;71.68;101683.16;125076;1111;23034;-55
2021/03/06 04:56:41;;;;;;;43.35;14.50;;;;;;;-3.80;71.12;101688.95;125021;1110;25985;-57
2021/03/06 04:59:11;;;;;;;45.73;13.97;;;;;;;-3.83;71.12;101695.92;125062;1111;24413;-55
2021/03/06 05:01:40;;;;;;;40.95;14.23;;;;;;;-3.89;71.41;101694.55;124932;1110;23083;-56
2021/03/06 05:04:09;;;;;;;42.50;13.17;;;;;;;-3.91;71.64;101699.56;124890;1112;24795;-58
2021/03/06 05:06:38;;;;;;;40.50;14.43;;;;;;;-3.95;71.47;101693.20;124876;1110;24656;-54
2021/03/06 05:09:08;;;;;;;38.93;13.50;;;;;;;-3.98;71.38;101699.37;125001;1110;23357;-57
2021/03/06 05:11:37;;;;;;;38.40;13.10;;;;;;;-4.02;71.45;101692.22;124843;1112;25921;-56
2021/03/06 05:14:06;;;;;;;40.30;14.15;;;;;;;-4.04;71.40;101695.30;124815;1112;23027;-56
2021/03/06 05:16:35;;;;;;;36.50;12.35;;;;;;;-4.06;71.22;101692.13;124880;1110;23028;-54
2021/03/06 05:19:04;;;;;;;38.45;14.13;;;;;;;-4.07;71.40;101690.52;124982;1110;23034;-60
2021/03/06 05:21:33;;;;;;;38.23;13.23;;;;;;;-4.12;71.68;101691.55;124948;1112;23076;-57
2021/03/06 05:24:02;;;;;;;44.53;14.37;;;;;;;-4.14;71.71;101693.83;124934;1112;27496;-55
2021/03/06 05:26:32;;;;;;;43.20;14.20;;;;;;;-4.16;71.75;101693.38;124951;1112;22988;-57
2021/03/06 05:29:01;;;;;;;41.10;15.13;;;;;;;-4.15;71.48;101692.26;125025;1112;23080;-54
2021/03/06 05:31:30;;;;;;;40.97;13.57;;;;;;;-4.14;72.38;101696.55;124867;1112;26088;-54
2021/03/06 05:33:59;;;;;;;39.70;13.80;;;;;;;-4.11;72.38;101700.53;124930;1110;26759;-57
2021/03/06 05:36:29;;;;;;;42.67;14.53;;;;;;;-4.10;71.99;101707.59;124894;1111;23031;-54
2021/03/06 05:38:58;;;;;;;44.03;15.05;;;;;;;-4.07;71.83;101706.88;125005;1112;26412;-57
2021/03/06 05:41:28;;;;;;;42.33;13.30;;;;;;;-4.08;71.88;101710.77;125163;1110;23038;-58
2021/03/06 05:43:59;;;;;;;44.85;15.70;;;;;;;-4.11;71.26;101709.52;124846;1112;23037;-55
2021/03/06 05:46:29;;;;;;;36.10;14.40;;;;;;;-4.17;71.56;101716.34;124995;1111;26705;-53
2021/03/06 05:48:58;;;;;;;44.18;16.32;;;;;;;-4.20;71.40;101711.56;125259;1112;26011;-54
2021/03/06 05:51:28;;;;;;;47.60;16.47;;;;;;;-4.25;71.47;101711.82;124899;1112;24831;-57
2021/03/06 05:53:58;;;;;;;47.35;15.45;;;;;;;-4.28;71.63;101722.59;125077;1111;23160;-54
2021/03/06 05:56:28;;;;;;;46.23;16.45;;;;;;;-4.29;72.20;101727.28;125124;1112;23029;-55
2021/03/06 05:58:57;;;;;;;51.33;17.27;;;;;;;-4.28;72.15;101728.05;124947;1110;23040;-56
2021/03/06 06:01:27;;;;;;;42.10;15.00;;;;;;;-4.27;72.40;101721.48;124940;1110;23045;-55
2021/03/06 06:03:59;;;;;;;34.90;12.50;;;;;;;-4.27;72.55;101726.93;124934;1112;27130;-56
2021/03/06 06:06:29;;;;;;;47.17;15.37;;;;;;;-4.29;72.23;101726.48;124950;1111;23226;-59
2021/03/06 06:09:00;;;;;;;;;;;;;;;-4.28;72.71;101733.51;124969;1111;27196;-54
2021/03/06 06:11:31;;;;;;;40.95;14.65;;;;;;;-4.28;73.14;101725.33;124976;1111;21536;-55
2021/03/06 06:13:59;;;;;;;;;;;;;;;-4.25;73.35;101730.91;124829;1111;23100;-57
2021/03/06 06:16:31;;;;;;;38.35;14.05;;;;;;;-4.22;73.08;101743.84;124864;1112;24537;-55
2021/03/06 06:19:01;;;;;;;40.20;13.17;;;;;;;-4.16;73.34;101749.88;124849;1112;23200;-55
2021/03/06 06:21:42;;;;;;;39.07;12.90;;;;;;;-4.11;73.48;101749.63;124720;1112;23089;-57
2021/03/06 06:24:11;;;;;;;;;;;;;;;-4.04;73.92;101755.30;126483;1111;23443;-54
2021/03/06 06:26:51;;;;;;;30.90;10.60;;;;;;;-4.00;73.94;101750.75;124749;1111;21676;-55
2021/03/06 06:29:37;;;;;;;33.85;12.15;;;;;;;-3.94;74.45;101752.09;124755;1112;23029;-55
2021/03/06 06:32:08;;;;;;;37.30;10.33;;;;;;;-3.86;74.01;101761.27;124880;1111;23177;-58
2021/03/06 06:34:38;;;;;;;25.90;9.20;;;;;;;-3.77;74.42;101762.75;124934;1111;23181;-55
2021/03/06 06:37:12;;;;;;;26.05;8.55;;;;;;;-3.65;74.63;101770.09;124811;1112;23084;-56
2021/03/06 06:39:42;;;;;;;28.03;8.30;;;;;;;-3.54;74.80;101773.93;124949;1111;27355;-56
2021/03/06 06:42:12;;;;;;;27.37;7.87;;;;;;;-3.44;74.87;101767.97;124897;1110;27352;-56
2021/03/06 06:44:54;;;;;;;31.20;9.10;;;;;;;-3.32;74.92;101773.38;124813;1111;24648;-55
2021/03/06 06:47:23;;;;;;;36.43;9.63;;;;;;;-3.19;75.03;101774.91;124756;1112;25446;-54
2021/03/06 06:49:54;;;;;;;30.07;7.93;;;;;;;-3.07;74.67;101779.52;124876;1111;23021;-54
2021/03/06 06:52:24;;;;;;;21.10;6.90;;;;;;;-2.96;74.88;101769.67;124601;1112;27916;-57
2021/03/06 06:54:55;;;;;;;27.85;8.05;;;;;;;-2.84;74.36;101775.05;124585;1112;23485;-59
2021/03/06 06:57:26;;;;;;;26.53;7.43;;;;;;;-2.72;75.07;101777.70;124851;1111;23036;-54
2021/03/06 06:59:55;;;;;;;;;;;;;;;-2.61;74.33;101779.55;124774;1112;24683;-57
2021/03/06 07:02:26;;;;;;;25.67;6.20;;;;;;;-2.50;74.97;101777.88;124827;1111;24417;-57
2021/03/06 07:04:56;;;;;;;22.53;5.83;;;;;;;-2.38;74.37;101787.14;124706;1110;23061;-58
2021/03/06 07:07:36;;;;;;;22.77;5.80;;;;;;;-2.28;74.43;101789.34;124793;1111;24415;-57
2021/03/06 07:10:17;;;;;;;18.77;5.20;;;;;;;-2.17;74.00;101793.13;124779;1110;23422;-53
2021/03/06 07:12:56;;;;;;;18.13;4.90;;;;;;;-2.05;73.44;101784.80;124800;1110;23022;-57
2021/03/06 07:15:27;;;;;;;24.03;5.83;;;;;;;-1.94;73.27;101792.09;124708;1111;23096;-58
2021/03/06 07:17:58;;;;;;;18.37;5.30;;;;;;;-1.83;73.72;101790.39;124932;1110;23524;-58
2021/03/06 07:20:34;;;;;;;24.17;5.30;;;;;;;-1.72;73.62;101793.37;124691;1111;23037;-57
2021/03/06 07:23:15;;;;;;;20.93;4.60;;;;;;;-1.60;72.80;101789.70;124900;1111;26411;-58
2021/03/06 07:25:45;;;;;;;24.97;5.87;;;;;;;-1.49;72.92;101791.48;124386;1112;23190;-59
2021/03/06 07:28:15;;;;;;;19.03;5.03;;;;;;;-1.40;73.10;101786.59;124606;1112;23081;-57
2021/03/06 07:30:44;;;;;;;23.25;5.35;;;;;;;-1.30;72.57;101787.95;124705;1111;23157;-56
2021/03/06 07:33:17;;;;;;;20.70;4.27;;;;;;;-1.22;72.59;101787.73;124771;1112;23037;-56
2021/03/06 07:35:48;;;;;;;22.77;5.83;;;;;;;-1.10;72.61;101797.77;124738;1110;24041;-56
2021/03/06 07:38:19;;;;;;;23.10;5.70;;;;;;;-1.02;72.13;101792.06;124678;1110;26061;-58
2021/03/06 07:40:52;;;;;;;23.47;5.23;;;;;;;-0.93;72.45;101792.61;124607;1112;23097;-55
2021/03/06 07:43:27;;;;;;;24.30;5.17;;;;;;;-0.84;72.81;101798.66;124799;1111;23057;-57
2021/03/06 07:45:59;;;;;;;21.47;4.57;;;;;;;-0.74;72.45;101799.20;124562;1112;23072;-58
2021/03/06 07:48:33;;;;;;;19.70;4.90;;;;;;;-0.65;72.05;101807.98;124538;1111;26463;-57
2021/03/06 07:51:05;;;;;;;20.17;5.27;;;;;;;-0.57;71.90;101802.27;124596;1112;27420;-54
2021/03/06 07:53:35;;;;;;;16.75;4.85;;;;;;;-0.47;71.21;101806.34;124553;1110;23024;-57
2021/03/06 07:56:07;;;;;;;15.67;4.10;;;;;;;-0.38;71.63;101798.66;124476;1110;23037;-65
2021/03/06 07:58:49;;;;;;;18.07;4.70;;;;;;;-0.30;70.99;101797.61;124585;1110;26093;-57
2021/03/06 08:01:29;;;;;;;21.33;4.53;;;;;;;-0.19;71.42;101795.84;124831;1111;23605;-55
2021/03/06 08:03:59;;;;;;;20.35;4.95;;;;;;;-0.08;70.62;101802.27;124388;1112;23263;-65
2021/03/06 08:06:29;;;;;;;22.87;5.58;;;;;;;0.00;70.72;101793.77;124918;1110;23234;-61
2021/03/06 08:09:13;;;;;;;17.90;4.77;;;;;;;0.08;71.01;101797.43;124592;1112;23283;-60
2021/03/06 08:11:44;;;;;;;14.33;3.90;;;;;;;0.16;70.81;101804.61;124566;1111;23025;-57
2021/03/06 08:14:38;;;;;;;19.60;4.30;;;;;;;0.24;70.54;101800.80;124606;1112;23033;-60
2021/03/06 08:17:37;;;;;;;15.70;3.17;;;;;;;0.33;70.42;101792.28;124662;1111;23036;-61
2021/03/06 08:20:25;;;;;;;22.07;3.97;;;;;;;0.40;69.46;101793.16;124547;1112;23077;-58
2021/03/06 08:23:19;;;;;;;14.80;3.60;;;;;;;0.48;69.16;101794.03;124670;1112;25969;-57
2021/03/06 08:26:13;;;;;;;16.40;3.43;;;;;;;0.55;69.12;101797.68;124668;1111;23197;-58
2021/03/06 08:28:42;;;;;;;16.97;3.53;;;;;;;0.64;68.73;101789.16;124715;1112;26731;-57
2021/03/06 08:31:38;;;;;;;13.63;3.00;;;;;;;0.73;67.71;101804.18;124663;1110;23545;-55
2021/03/06 08:34:28;;;;;;;13.57;2.67;;;;;;;0.83;67.81;101797.21;124586;1110;23059;-56
2021/03/06 08:37:29;;;;;;;9.65;2.52;;;;;;;0.95;67.56;101794.23;124951;1112;23031;-55
2021/03/06 08:40:01;;;;;;;9.23;1.60;;;;;;;1.09;67.06;101801.83;124658;1112;23031;-56
2021/03/06 08:42:32;;;;;;;12.10;1.77;;;;;;;1.17;66.42;101790.53;124973;1110;23228;-57
2021/03/06 08:45:04;;;;;;;9.40;1.77;;;;;;;1.24;66.27;101798.06;124704;1112;23027;-58
2021/03/06 08:47:36;;;;;;;12.87;2.53;;;;;;;1.34;65.96;101797.38;124435;1112;23081;-58
2021/03/06 08:50:09;;;;;;;8.47;1.47;;;;;;;1.41;65.40;101802.92;124769;1111;23239;-59
2021/03/06 08:52:39;;;;;;;10.60;1.80;;;;;;;1.49;65.55;101801.84;124506;1111;26453;-59
2021/03/06 08:55:10;;;;;;;8.87;1.50;;;;;;;1.55;65.02;101803.08;124580;1110;23030;-55
2021/03/06 08:57:41;;;;;;;8.30;1.30;;;;;;;1.63;65.32;101801.97;124619;1110;23115;-59
2021/03/06 09:00:20;;;;;;;7.73;1.30;;;;;;;1.71;63.61;101798.09;124527;1112;24834;-58
2021/03/06 09:02:51;;;;;;;4.73;1.23;;;;;;;1.81;64.77;101799.34;124633;1110;23082;-56
2021/03/06 09:05:22;;;;;;;7.22;1.37;;;;;;;1.89;64.34;101806.48;124789;1111;23085;-59
2021/03/06 09:07:54;;;;;;;10.43;1.47;;;;;;;1.92;63.89;101798.27;124966;1112;23030;-57
2021/03/06 09:10:28;;;;;;;6.10;1.10;;;;;;;1.99;64.25;101806.56;124851;1112;23054;-54
2021/03/06 09:13:00;;;;;;;10.70;1.40;;;;;;;2.11;63.37;101805.48;124899;1112;25441;-56
2021/03/06 09:15:39;;;;;;;10.75;1.40;;;;;;;2.20;62.32;101809.46;124950;1112;23053;-52
2021/03/06 09:18:10;;;;;;;10.33;1.40;;;;;;;2.30;63.45;101810.69;125248;1111;23076;-57
2021/03/06 09:20:47;;;;;;;6.83;1.17;;;;;;;2.35;62.70;101797.36;124695;1111;23039;-56
2021/03/06 09:23:34;;;;;;;7.13;1.10;;;;;;;2.40;62.43;101804.47;124869;1110;23067;-58
2021/03/06 09:26:09;;;;;;;6.20;1.10;;;;;;;2.45;62.36;101806.84;124730;1110;23756;-56
2021/03/06 09:28:38;;;;;;;7.10;1.60;;;;;;;2.50;61.25;101798.22;124945;1110;24169;-58
2021/03/06 09:31:13;;;;;;;6.93;1.50;;;;;;;2.54;61.76;101806.50;124759;1111;23082;-55
2021/03/06 09:33:43;;;;;;;7.15;1.20;;;;;;;2.58;61.64;101799.83;124746;1111;24421;-58
2021/03/06 09:36:14;;;;;;;8.27;1.10;;;;;;;2.65;61.47;101808.12;124680;1112;24679;-58
2021/03/06 09:38:48;;;;;;;9.40;1.25;;;;;;;2.74;60.57;101805.80;124739;1112;25850;-58
2021/03/06 09:41:19;;;;;;;7.93;1.30;;;;;;;2.83;61.05;101808.20;125019;1110;24481;-57
2021/03/06 09:43:52;;;;;;;6.87;1.00;;;;;;;2.92;60.09;101805.85;124711;1110;23089;-59
2021/03/06 09:46:24;;;;;;;7.97;1.33;;;;;;;2.98;60.53;101801.56;124748;1112;25386;-56
2021/03/06 09:48:55;;;;;;;6.23;1.30;;;;;;;3.03;59.59;101799.20;124806;1111;23033;-58
2021/03/06 09:51:36;;;;;;;4.53;0.70;;;;;;;3.09;59.20;101796.84;124763;1110;23103;-58
2021/03/06 09:54:14;;;;;;;9.67;1.43;;;;;;;3.15;58.59;101798.04;124656;1110;23238;-57
2021/03/06 09:56:48;;;;;;;6.53;1.00;;;;;;;3.16;58.31;101797.67;124888;1111;26408;-57
2021/03/06 09:59:18;;;;;;;3.80;0.85;;;;;;;3.25;58.00;101802.79;124762;1111;23330;-59
2021/03/06 10:01:48;;;;;;;7.67;1.30;;;;;;;3.31;58.81;101792.94;124816;1111;23066;-56
2021/03/06 10:04:19;;;;;;;7.00;1.00;;;;;;;3.32;57.79;101788.22;124791;1111;27649;-56
2021/03/06 10:06:51;;;;;;;4.17;0.73;;;;;;;3.36;57.72;101791.77;124877;1110;27310;-55
2021/03/06 10:09:22;;;;;;;6.40;0.90;;;;;;;3.39;57.28;101804.80;125717;1110;24725;-55
2021/03/06 10:11:53;;;;;;;5.13;0.80;;;;;;;3.44;56.15;101804.39;125483;1110;23090;-55
2021/03/06 10:14:24;;;;;;;6.10;0.80;;;;;;;3.49;57.19;101802.05;124718;1111;23451;-56
2021/03/06 10:16:52;;;;;;;;;;;;;;;3.51;56.70;101807.17;124819;1110;23036;-59
2021/03/06 10:19:25;;;;;;;6.50;0.80;;;;;;;3.57;56.72;101797.31;124778;1111;24567;-58
2021/03/06 10:22:02;;;;;;;6.10;0.80;;;;;;;3.59;56.46;101792.98;124859;1112;23093;-56
2021/03/06 10:24:32;;;;;;;7.70;0.90;;;;;;;3.62;56.18;101785.89;125011;1112;23171;-57
2021/03/06 10:27:03;;;;;;;4.50;0.90;;;;;;;3.66;56.98;101787.44;125141;1112;27535;-57
2021/03/06 10:29:31;;;;;;;;;;;;;;;3.73;56.77;101781.93;125077;1110;23117;-56
2021/03/06 10:32:04;;;;;;;7.70;1.00;;;;;;;3.81;56.38;101788.23;124619;1111;25723;-56
2021/03/06 10:34:35;;;;;;;7.13;0.80;;;;;;;3.82;55.95;101790.62;124704;1111;23182;-58
2021/03/06 10:37:13;;;;;;;7.33;0.90;;;;;;;3.82;55.01;101785.09;124995;1112;23039;-62
2021/03/06 10:39:59;;;;;;;4.00;0.77;;;;;;;3.80;54.68;101775.62;124759;1112;23033;-53
2021/03/06 10:42:43;;;;;;;5.23;0.90;;;;;;;3.81;54.22;101760.61;124830;1112;23203;-54
2021/03/06 10:45:26;;;;;;;6.25;1.00;;;;;;;3.88;55.07;101766.13;124951;1112;24581;-58
2021/03/06 10:48:00;;;;;;;7.17;1.03;;;;;;;3.92;53.05;101762.19;124896;1111;23100;-57
2021/03/06 10:50:31;;;;;;;4.00;0.87;;;;;;;3.97;52.35;101759.00;124560;1110;24342;-57
2021/03/06 10:53:19;;;;;;;2.60;0.53;;;;;;;3.99;52.77;101753.11;124994;1110;25979;-56
2021/03/06 10:55:51;;;;;;;6.73;0.90;;;;;;;3.97;54.00;101750.72;124772;1111;23171;-55
2021/03/06 10:58:21;;;;;;;4.23;0.87;;;;;;;4.02;53.37;101744.00;124720;1111;25985;-55
2021/03/06 11:01:00;;;;;;;4.03;0.78;;;;;;;4.10;53.60;101740.83;124662;1112;23096;-57
2021/03/06 11:03:45;;;;;;;6.00;0.90;;;;;;;4.15;53.69;101750.69;124487;1111;24537;-54
2021/03/06 11:06:15;;;;;;;6.67;0.70;;;;;;;4.21;52.97;101743.56;124621;1112;26720;-55
2021/03/06 11:08:57;;;;;;;6.47;1.00;;;;;;;4.30;53.13;101740.38;124710;1112;23084;-56
2021/03/06 11:11:27;;;;;;;3.80;0.75;;;;;;;4.49;53.18;101745.45;124614;1111;24679;-57
2021/03/06 11:13:57;;;;;;;3.45;0.70;;;;;;;4.60;52.90;101737.88;124936;1111;23090;-58
2021/03/06 11:16:40;;;;;;;4.80;0.83;;;;;;;4.67;52.05;101733.12;124407;1110;25365;-58
2021/03/06 11:19:10;;;;;;;4.50;0.97;;;;;;;4.76;51.38;101738.19;124645;1112;23113;-59
2021/03/06 11:21:38;;;;;;;4.93;1.07;;;;;;;4.78;50.98;101719.20;124781;1112;23113;-54
2021/03/06 11:24:10;;;;;;;6.77;1.10;;;;;;;4.82;51.02;101737.37;124422;1111;27364;-57
2021/03/06 11:26:40;;;;;;;4.27;0.80;;;;;;;4.85;50.61;101728.27;124671;1112;23074;-56
2021/03/06 11:29:10;;;;;;;8.47;1.00;;;;;;;4.79;50.61;101720.80;124611;1112;22994;-58
2021/03/06 11:31:43;;;;;;;6.25;1.65;;;;;;;4.78;50.71;101722.77;124707;1112;23225;-57
2021/03/06 11:34:13;;;;;;;6.67;0.93;;;;;;;4.83;50.94;101716.03;124959;1112;23091;-55
2021/03/06 11:36:42;;;;;;;3.53;0.87;;;;;;;4.85;50.57;101708.11;124750;1111;27365;-57